sensor_id;sensor_type;location;lat;lon;timestamp;P1;durP1;ratioP1;P2;durP2;ratioP2
79399;SDS011;68856;45.586;10.264;2023-05-15T00:01:20;2.80;;;2.60;;
79399;SDS011;68856;45.586;10.264;2023-05-15T00:03:47;2.72;;;2.53;;
79399;SDS011;68856;45.586;10.264;2023-05-15T00:06:14;3.10;;;2.80;;
79399;SDS011;68856;45.586;10.264;2023-05-15T00:08:40;2.92;;;2.72;;
79399;SDS011;68856;45.586;10.264;2023-05-15T00:11:06;3.40;;;3.10;;
79399;SDS011;68856;45.586;10.264;2023-05-15T00:13:33;3.20;;;3.00;;
79399;SDS011;68856;45.586;10.264;2023-05-15T00:15:59;2.72;;;2.53;;
79399;SDS011;68856;45.586;10.264;2023-05-15T00:18:25;2.83;;;2.50;;
79399;SDS011;68856;45.586;10.264;2023-05-15T00:20:52;2.90;;;2.70;;
79399;SDS011;68856;45.586;10.264;2023-05-15T00:23:18;3.30;;;2.38;;
79399;SDS011;68856;45.586;10.264;2023-05-15T00:25:44;2.33;;;2.17;;
79399;SDS011;68856;45.586;10.264;2023-05-15T00:28:10;2.65;;;2.45;;
79399;SDS011;68856;45.586;10.264;2023-05-15T00:30:37;4.43;;;2.17;;
79399;SDS011;68856;45.586;10.264;2023-05-15T00:33:03;3.25;;;2.40;;
79399;SDS011;68856;45.586;10.264;2023-05-15T00:35:30;3.47;;;2.17;;
79399;SDS011;68856;45.586;10.264;2023-05-15T00:37:57;2.40;;;2.20;;
79399;SDS011;68856;45.586;10.264;2023-05-15T00:40:23;2.72;;;2.50;;
79399;SDS011;68856;45.586;10.264;2023-05-15T00:42:51;2.33;;;2.13;;
79399;SDS011;68856;45.586;10.264;2023-05-15T00:45:18;2.88;;;1.83;;
79399;SDS011;68856;45.586;10.264;2023-05-15T00:47:46;2.90;;;1.92;;
79399;SDS011;68856;45.586;10.264;2023-05-15T00:50:13;2.92;;;1.88;;
79399;SDS011;68856;45.586;10.264;2023-05-15T00:52:40;1.80;;;1.70;;
79399;SDS011;68856;45.586;10.264;2023-05-15T00:55:07;1.88;;;1.77;;
79399;SDS011;68856;45.586;10.264;2023-05-15T00:57:33;1.60;;;1.50;;
79399;SDS011;68856;45.586;10.264;2023-05-15T01:00:01;1.50;;;1.40;;
79399;SDS011;68856;45.586;10.264;2023-05-15T01:02:30;1.63;;;1.52;;
79399;SDS011;68856;45.586;10.264;2023-05-15T01:04:57;1.33;;;1.27;;
79399;SDS011;68856;45.586;10.264;2023-05-15T01:07:23;1.40;;;1.30;;
79399;SDS011;68856;45.586;10.264;2023-05-15T01:09:49;1.02;;;1.02;;
79399;SDS011;68856;45.586;10.264;2023-05-15T01:12:18;0.80;;;0.80;;
79399;SDS011;68856;45.586;10.264;2023-05-15T01:14:48;1.58;;;1.48;;
79399;SDS011;68856;45.586;10.264;2023-05-15T01:17:14;1.25;;;1.10;;
79399;SDS011;68856;45.586;10.264;2023-05-15T01:19:40;1.50;;;1.20;;
79399;SDS011;68856;45.586;10.264;2023-05-15T01:27:17;1.50;;;1.40;;
79399;SDS011;68856;45.586;10.264;2023-05-15T01:30:04;1.98;;;1.42;;
79399;SDS011;68856;45.586;10.264;2023-05-15T01:35:40;1.52;;;1.42;;
79399;SDS011;68856;45.586;10.264;2023-05-15T01:41:34;1.40;;;1.30;;
79399;SDS011;68856;45.586;10.264;2023-05-15T01:44:25;1.48;;;1.38;;
79399;SDS011;68856;45.586;10.264;2023-05-15T01:46:55;1.50;;;1.40;;
79399;SDS011;68856;45.586;10.264;2023-05-15T01:49:27;1.48;;;1.38;;
79399;SDS011;68856;45.586;10.264;2023-05-15T01:51:57;1.73;;;1.30;;
79399;SDS011;68856;45.586;10.264;2023-05-15T01:54:34;1.65;;;1.52;;
79399;SDS011;68856;45.586;10.264;2023-05-15T01:57:01;1.45;;;1.35;;
79399;SDS011;68856;45.586;10.264;2023-05-15T01:59:29;1.20;;;1.10;;
79399;SDS011;68856;45.586;10.264;2023-05-15T02:01:57;1.30;;;1.20;;
79399;SDS011;68856;45.586;10.264;2023-05-15T02:04:23;1.20;;;1.10;;
79399;SDS011;68856;45.586;10.264;2023-05-15T02:06:51;2.58;;;1.60;;
79399;SDS011;68856;45.586;10.264;2023-05-15T02:09:19;2.47;;;1.70;;
79399;SDS011;68856;45.586;10.264;2023-05-15T02:11:47;3.55;;;1.85;;
79399;SDS011;68856;45.586;10.264;2023-05-15T02:14:13;2.70;;;2.03;;
79399;SDS011;68856;45.586;10.264;2023-05-15T02:16:41;3.38;;;1.65;;
79399;SDS011;68856;45.586;10.264;2023-05-15T02:19:08;1.80;;;1.70;;
79399;SDS011;68856;45.586;10.264;2023-05-15T02:21:34;2.10;;;1.90;;
79399;SDS011;68856;45.586;10.264;2023-05-15T02:24:00;4.82;;;1.60;;
79399;SDS011;68856;45.586;10.264;2023-05-15T02:36:56;1.40;;;1.30;;
79399;SDS011;68856;45.586;10.264;2023-05-15T02:39:27;1.05;;;1.05;;
79399;SDS011;68856;45.586;10.264;2023-05-15T02:41:55;1.60;;;1.50;;
79399;SDS011;68856;45.586;10.264;2023-05-15T02:44:23;1.20;;;1.10;;
79399;SDS011;68856;45.586;10.264;2023-05-15T02:46:51;1.23;;;1.15;;
79399;SDS011;68856;45.586;10.264;2023-05-15T02:49:18;1.05;;;0.90;;
79399;SDS011;68856;45.586;10.264;2023-05-15T02:51:46;1.30;;;1.20;;
79399;SDS011;68856;45.586;10.264;2023-05-15T02:54:12;1.30;;;1.05;;
79399;SDS011;68856;45.586;10.264;2023-05-15T02:56:39;1.45;;;1.08;;
79399;SDS011;68856;45.586;10.264;2023-05-15T02:59:05;1.67;;;0.93;;
79399;SDS011;68856;45.586;10.264;2023-05-15T03:01:31;1.95;;;1.00;;
79399;SDS011;68856;45.586;10.264;2023-05-15T03:03:57;1.08;;;0.98;;
79399;SDS011;68856;45.586;10.264;2023-05-15T03:06:24;1.30;;;1.20;;
79399;SDS011;68856;45.586;10.264;2023-05-15T03:08:50;1.52;;;1.08;;
79399;SDS011;68856;45.586;10.264;2023-05-15T03:11:16;0.77;;;0.70;;
79399;SDS011;68856;45.586;10.264;2023-05-15T03:13:43;1.10;;;1.10;;
79399;SDS011;68856;45.586;10.264;2023-05-15T03:16:09;1.15;;;1.02;;
79399;SDS011;68856;45.586;10.264;2023-05-15T03:18:35;1.48;;;0.98;;
79399;SDS011;68856;45.586;10.264;2023-05-15T03:21:02;1.30;;;1.17;;
79399;SDS011;68856;45.586;10.264;2023-05-15T03:23:28;0.85;;;0.80;;
79399;SDS011;68856;45.586;10.264;2023-05-15T03:25:56;0.90;;;0.90;;
79399;SDS011;68856;45.586;10.264;2023-05-15T03:28:22;0.95;;;0.93;;
79399;SDS011;68856;45.586;10.264;2023-05-15T03:30:49;1.85;;;1.08;;
79399;SDS011;68856;45.586;10.264;2023-05-15T03:33:15;1.00;;;1.00;;
79399;SDS011;68856;45.586;10.264;2023-05-15T03:35:41;1.20;;;1.10;;
79399;SDS011;68856;45.586;10.264;2023-05-15T03:38:08;1.40;;;1.30;;
79399;SDS011;68856;45.586;10.264;2023-05-15T03:40:36;3.78;;;1.10;;
79399;SDS011;68856;45.586;10.264;2023-05-15T03:43:03;1.30;;;1.00;;
79399;SDS011;68856;45.586;10.264;2023-05-15T03:45:31;1.48;;;0.95;;
79399;SDS011;68856;45.586;10.264;2023-05-15T03:47:59;1.05;;;1.05;;
79399;SDS011;68856;45.586;10.264;2023-05-15T03:50:25;1.02;;;1.00;;
79399;SDS011;68856;45.586;10.264;2023-05-15T03:52:51;1.17;;;1.08;;
79399;SDS011;68856;45.586;10.264;2023-05-15T03:55:18;1.33;;;1.23;;
79399;SDS011;68856;45.586;10.264;2023-05-15T03:57:44;2.20;;;1.00;;
79399;SDS011;68856;45.586;10.264;2023-05-15T04:00:10;0.98;;;0.88;;
79399;SDS011;68856;45.586;10.264;2023-05-15T04:02:37;1.15;;;1.10;;
79399;SDS011;68856;45.586;10.264;2023-05-15T04:05:05;1.23;;;0.98;;
79399;SDS011;68856;45.586;10.264;2023-05-15T04:07:32;1.95;;;0.90;;
79399;SDS011;68856;45.586;10.264;2023-05-15T04:10:00;1.95;;;1.00;;
79399;SDS011;68856;45.586;10.264;2023-05-15T04:12:27;0.77;;;0.77;;
79399;SDS011;68856;45.586;10.264;2023-05-15T04:14:55;1.23;;;1.00;;
79399;SDS011;68856;45.586;10.264;2023-05-15T04:17:42;0.70;;;0.70;;
79399;SDS011;68856;45.586;10.264;2023-05-15T04:20:09;0.70;;;0.68;;
79399;SDS011;68856;45.586;10.264;2023-05-15T04:22:40;0.90;;;0.80;;
79399;SDS011;68856;45.586;10.264;2023-05-15T04:25:07;1.10;;;0.95;;
79399;SDS011;68856;45.586;10.264;2023-05-15T04:27:35;1.73;;;1.00;;
79399;SDS011;68856;45.586;10.264;2023-05-15T04:30:03;1.88;;;0.95;;
79399;SDS011;68856;45.586;10.264;2023-05-15T04:32:30;1.17;;;0.98;;
79399;SDS011;68856;45.586;10.264;2023-05-15T04:35:03;1.35;;;1.25;;
79399;SDS011;68856;45.586;10.264;2023-05-15T04:37:30;1.30;;;1.23;;
79399;SDS011;68856;45.586;10.264;2023-05-15T04:39:57;3.13;;;1.33;;
79399;SDS011;68856;45.586;10.264;2023-05-15T04:42:23;1.20;;;1.10;;
79399;SDS011;68856;45.586;10.264;2023-05-15T04:44:50;1.52;;;1.35;;
79399;SDS011;68856;45.586;10.264;2023-05-15T04:47:17;2.33;;;1.17;;
79399;SDS011;68856;45.586;10.264;2023-05-15T04:49:43;1.55;;;1.20;;
79399;SDS011;68856;45.586;10.264;2023-05-15T04:52:12;1.35;;;1.25;;
79399;SDS011;68856;45.586;10.264;2023-05-15T04:54:38;0.80;;;0.80;;
79399;SDS011;68856;45.586;10.264;2023-05-15T04:57:04;0.90;;;0.90;;
79399;SDS011;68856;45.586;10.264;2023-05-15T04:59:30;1.98;;;0.95;;
79399;SDS011;68856;45.586;10.264;2023-05-15T05:01:57;1.30;;;1.20;;
79399;SDS011;68856;45.586;10.264;2023-05-15T05:04:23;1.40;;;1.30;;
79399;SDS011;68856;45.586;10.264;2023-05-15T05:06:50;0.90;;;0.90;;
79399;SDS011;68856;45.586;10.264;2023-05-15T05:09:17;1.13;;;1.10;;
79399;SDS011;68856;45.586;10.264;2023-05-15T05:11:44;1.25;;;1.10;;
79399;SDS011;68856;45.586;10.264;2023-05-15T05:14:12;1.13;;;1.02;;
79399;SDS011;68856;45.586;10.264;2023-05-15T05:16:39;0.70;;;0.70;;
79399;SDS011;68856;45.586;10.264;2023-05-15T05:19:09;4.23;;;0.87;;
79399;SDS011;68856;45.586;10.264;2023-05-15T05:21:35;0.70;;;0.70;;
79399;SDS011;68856;45.586;10.264;2023-05-15T05:24:02;2.25;;;1.05;;
79399;SDS011;68856;45.586;10.264;2023-05-15T05:26:28;3.22;;;1.30;;
79399;SDS011;68856;45.586;10.264;2023-05-15T05:28:54;2.65;;;1.30;;
79399;SDS011;68856;45.586;10.264;2023-05-15T05:31:20;1.70;;;1.60;;
79399;SDS011;68856;45.586;10.264;2023-05-15T05:33:47;1.00;;;1.00;;
79399;SDS011;68856;45.586;10.264;2023-05-15T05:36:16;2.05;;;1.00;;
79399;SDS011;68856;45.586;10.264;2023-05-15T05:38:43;1.83;;;1.13;;
79399;SDS011;68856;45.586;10.264;2023-05-15T05:41:09;1.00;;;0.93;;
79399;SDS011;68856;45.586;10.264;2023-05-15T05:43:35;3.45;;;0.98;;
79399;SDS011;68856;45.586;10.264;2023-05-15T05:46:01;1.10;;;1.05;;
79399;SDS011;68856;45.586;10.264;2023-05-15T05:48:28;3.33;;;1.40;;
79399;SDS011;68856;45.586;10.264;2023-05-15T05:50:54;1.40;;;1.17;;
79399;SDS011;68856;45.586;10.264;2023-05-15T05:53:21;2.03;;;1.20;;
79399;SDS011;68856;45.586;10.264;2023-05-15T05:55:47;1.10;;;1.10;;
79399;SDS011;68856;45.586;10.264;2023-05-15T05:58:14;4.20;;;1.13;;
79399;SDS011;68856;45.586;10.264;2023-05-15T06:00:41;1.48;;;1.38;;
79399;SDS011;68856;45.586;10.264;2023-05-15T06:03:08;3.25;;;1.73;;
79399;SDS011;68856;45.586;10.264;2023-05-15T06:05:34;3.70;;;1.45;;
79399;SDS011;68856;45.586;10.264;2023-05-15T06:08:00;2.45;;;1.30;;
79399;SDS011;68856;45.586;10.264;2023-05-15T06:10:28;3.20;;;1.20;;
79399;SDS011;68856;45.586;10.264;2023-05-15T06:12:55;2.20;;;1.85;;
79399;SDS011;68856;45.586;10.264;2023-05-15T06:15:21;1.30;;;1.20;;
79399;SDS011;68856;45.586;10.264;2023-05-15T06:17:47;1.85;;;1.00;;
79399;SDS011;68856;45.586;10.264;2023-05-15T06:20:14;2.25;;;1.10;;
79399;SDS011;68856;45.586;10.264;2023-05-15T06:22:40;0.93;;;0.93;;
79399;SDS011;68856;45.586;10.264;2023-05-15T06:25:06;1.30;;;1.00;;
79399;SDS011;68856;45.586;10.264;2023-05-15T06:27:37;1.35;;;1.25;;
79399;SDS011;68856;45.586;10.264;2023-05-15T06:30:05;4.50;;;1.40;;
79399;SDS011;68856;45.586;10.264;2023-05-15T06:32:32;1.77;;;1.13;;
79399;SDS011;68856;45.586;10.264;2023-05-15T06:34:58;1.23;;;1.13;;
79399;SDS011;68856;45.586;10.264;2023-05-15T06:37:25;1.20;;;1.10;;
79399;SDS011;68856;45.586;10.264;2023-05-15T06:39:51;1.67;;;1.58;;
79399;SDS011;68856;45.586;10.264;2023-05-15T06:42:17;1.30;;;1.20;;
79399;SDS011;68856;45.586;10.264;2023-05-15T06:44:44;2.42;;;1.10;;
79399;SDS011;68856;45.586;10.264;2023-05-15T06:47:11;2.05;;;0.95;;
79399;SDS011;68856;45.586;10.264;2023-05-15T06:49:37;3.20;;;1.40;;
79399;SDS011;68856;45.586;10.264;2023-05-15T06:52:04;1.33;;;1.17;;
79399;SDS011;68856;45.586;10.264;2023-05-15T06:54:30;1.88;;;1.13;;
79399;SDS011;68856;45.586;10.264;2023-05-15T06:56:57;1.10;;;0.90;;
79399;SDS011;68856;45.586;10.264;2023-05-15T06:59:23;2.20;;;1.33;;
79399;SDS011;68856;45.586;10.264;2023-05-15T07:01:50;2.17;;;1.20;;
79399;SDS011;68856;45.586;10.264;2023-05-15T07:04:16;1.63;;;1.00;;
79399;SDS011;68856;45.586;10.264;2023-05-15T07:06:42;1.10;;;1.00;;
79399;SDS011;68856;45.586;10.264;2023-05-15T07:09:09;0.95;;;0.95;;
79399;SDS011;68856;45.586;10.264;2023-05-15T07:11:35;1.52;;;0.88;;
79399;SDS011;68856;45.586;10.264;2023-05-15T07:14:03;1.50;;;1.10;;
79399;SDS011;68856;45.586;10.264;2023-05-15T07:16:30;0.90;;;0.90;;
79399;SDS011;68856;45.586;10.264;2023-05-15T07:18:56;1.85;;;1.63;;
79399;SDS011;68856;45.586;10.264;2023-05-15T07:21:22;1.30;;;1.20;;
79399;SDS011;68856;45.586;10.264;2023-05-15T07:23:49;0.90;;;0.70;;
79399;SDS011;68856;45.586;10.264;2023-05-15T07:26:15;2.35;;;0.90;;
79399;SDS011;68856;45.586;10.264;2023-05-15T07:28:41;1.45;;;0.90;;
79399;SDS011;68856;45.586;10.264;2023-05-15T07:31:08;2.33;;;1.30;;
79399;SDS011;68856;45.586;10.264;2023-05-15T07:33:34;1.25;;;1.17;;
79399;SDS011;68856;45.586;10.264;2023-05-15T07:36:00;5.00;;;1.38;;
79399;SDS011;68856;45.586;10.264;2023-05-15T07:38:27;1.35;;;1.25;;
79399;SDS011;68856;45.586;10.264;2023-05-15T07:40:53;1.48;;;1.10;;
79399;SDS011;68856;45.586;10.264;2023-05-15T07:43:19;1.63;;;1.08;;
79399;SDS011;68856;45.586;10.264;2023-05-15T07:45:45;2.72;;;0.93;;
79399;SDS011;68856;45.586;10.264;2023-05-15T07:48:15;2.55;;;1.13;;
79399;SDS011;68856;45.586;10.264;2023-05-15T07:50:45;2.22;;;1.50;;
79399;SDS011;68856;45.586;10.264;2023-05-15T07:53:13;1.67;;;1.30;;
79399;SDS011;68856;45.586;10.264;2023-05-15T07:55:42;1.92;;;1.63;;
79399;SDS011;68856;45.586;10.264;2023-05-15T07:58:09;1.48;;;1.38;;
79399;SDS011;68856;45.586;10.264;2023-05-15T08:00:36;2.03;;;1.52;;
79399;SDS011;68856;45.586;10.264;2023-05-15T08:03:02;2.50;;;1.40;;
79399;SDS011;68856;45.586;10.264;2023-05-15T08:05:29;0.98;;;0.95;;
79399;SDS011;68856;45.586;10.264;2023-05-15T08:07:55;1.80;;;1.70;;
79399;SDS011;68856;45.586;10.264;2023-05-15T08:10:22;2.35;;;2.10;;
79399;SDS011;68856;45.586;10.264;2023-05-15T08:12:48;3.35;;;1.98;;
79399;SDS011;68856;45.586;10.264;2023-05-15T08:15:14;1.98;;;1.70;;
79399;SDS011;68856;45.586;10.264;2023-05-15T08:17:41;2.03;;;1.88;;
79399;SDS011;68856;45.586;10.264;2023-05-15T08:20:08;3.08;;;2.20;;
79399;SDS011;68856;45.586;10.264;2023-05-15T08:22:34;3.08;;;2.75;;
79399;SDS011;68856;45.586;10.264;2023-05-15T08:25:00;4.18;;;2.70;;
79399;SDS011;68856;45.586;10.264;2023-05-15T08:27:31;2.83;;;2.42;;
79399;SDS011;68856;45.586;10.264;2023-05-15T08:29:57;3.05;;;2.35;;
79399;SDS011;68856;45.586;10.264;2023-05-15T08:32:23;2.63;;;2.40;;
79399;SDS011;68856;45.586;10.264;2023-05-15T08:34:51;3.75;;;2.10;;
79399;SDS011;68856;45.586;10.264;2023-05-15T08:37:17;3.28;;;2.10;;
79399;SDS011;68856;45.586;10.264;2023-05-15T08:39:43;3.60;;;2.22;;
79399;SDS011;68856;45.586;10.264;2023-05-15T08:44:44;3.25;;;2.67;;
79399;SDS011;68856;45.586;10.264;2023-05-15T08:47:12;3.30;;;2.40;;
79399;SDS011;68856;45.586;10.264;2023-05-15T08:52:06;3.97;;;2.78;;
79399;SDS011;68856;45.586;10.264;2023-05-15T08:54:32;3.10;;;2.80;;
79399;SDS011;68856;45.586;10.264;2023-05-15T08:57:00;4.05;;;3.40;;
79399;SDS011;68856;45.586;10.264;2023-05-15T08:59:27;4.03;;;3.22;;
79399;SDS011;68856;45.586;10.264;2023-05-15T09:01:54;4.00;;;3.58;;
79399;SDS011;68856;45.586;10.264;2023-05-15T09:04:21;4.18;;;3.50;;
79399;SDS011;68856;45.586;10.264;2023-05-15T09:06:47;3.83;;;3.40;;
79399;SDS011;68856;45.586;10.264;2023-05-15T09:09:14;5.45;;;3.03;;
79399;SDS011;68856;45.586;10.264;2023-05-15T09:11:42;4.18;;;3.83;;
79399;SDS011;68856;45.586;10.264;2023-05-15T09:14:09;3.40;;;3.10;;
79399;SDS011;68856;45.586;10.264;2023-05-15T09:16:36;4.32;;;3.22;;
79399;SDS011;68856;45.586;10.264;2023-05-15T09:19:03;3.47;;;3.17;;
79399;SDS011;68856;45.586;10.264;2023-05-15T09:21:31;5.63;;;3.60;;
79399;SDS011;68856;45.586;10.264;2023-05-15T09:27:08;3.55;;;3.25;;
79399;SDS011;68856;45.586;10.264;2023-05-15T09:29:36;3.53;;;3.15;;
79399;SDS011;68856;45.586;10.264;2023-05-15T09:32:07;3.60;;;3.30;;
79399;SDS011;68856;45.586;10.264;2023-05-15T09:34:38;4.75;;;3.50;;
79399;SDS011;68856;45.586;10.264;2023-05-15T09:37:06;6.03;;;3.65;;
79399;SDS011;68856;45.586;10.264;2023-05-15T09:39:43;3.63;;;3.33;;
79399;SDS011;68856;45.586;10.264;2023-05-15T09:42:13;4.20;;;3.67;;
79399;SDS011;68856;45.586;10.264;2023-05-15T09:44:43;3.92;;;3.55;;
79399;SDS011;68856;45.586;10.264;2023-05-15T09:47:11;3.85;;;3.50;;
79399;SDS011;68856;45.586;10.264;2023-05-15T09:49:38;6.57;;;3.80;;
79399;SDS011;68856;45.586;10.264;2023-05-15T09:52:08;4.35;;;3.78;;
79399;SDS011;68856;45.586;10.264;2023-05-15T09:54:35;4.90;;;4.07;;
79399;SDS011;68856;45.586;10.264;2023-05-15T09:57:08;4.35;;;4.00;;
79399;SDS011;68856;45.586;10.264;2023-05-15T09:59:45;3.88;;;3.42;;
79399;SDS011;68856;45.586;10.264;2023-05-15T10:02:13;3.63;;;3.33;;
79399;SDS011;68856;45.586;10.264;2023-05-15T10:04:59;4.18;;;3.50;;
79399;SDS011;68856;45.586;10.264;2023-05-15T10:07:32;3.97;;;3.58;;
79399;SDS011;68856;45.586;10.264;2023-05-15T10:10:00;4.40;;;4.00;;
79399;SDS011;68856;45.586;10.264;2023-05-15T10:12:28;6.20;;;3.92;;
79399;SDS011;68856;45.586;10.264;2023-05-15T10:14:56;3.58;;;3.28;;
79399;SDS011;68856;45.586;10.264;2023-05-15T10:17:26;3.42;;;3.10;;
79399;SDS011;68856;45.586;10.264;2023-05-15T10:19:56;3.90;;;3.60;;
79399;SDS011;68856;45.586;10.264;2023-05-15T10:22:28;4.53;;;3.55;;
79399;SDS011;68856;45.586;10.264;2023-05-15T10:25:07;3.93;;;3.63;;
79399;SDS011;68856;45.586;10.264;2023-05-15T10:27:39;4.93;;;3.80;;
79399;SDS011;68856;45.586;10.264;2023-05-15T10:30:08;5.28;;;3.45;;
79399;SDS011;68856;45.586;10.264;2023-05-15T10:32:36;4.35;;;3.47;;
79399;SDS011;68856;45.586;10.264;2023-05-15T10:35:03;3.90;;;3.60;;
79399;SDS011;68856;45.586;10.264;2023-05-15T10:37:30;3.83;;;3.50;;
79399;SDS011;68856;45.586;10.264;2023-05-15T10:39:57;4.47;;;3.90;;
79399;SDS011;68856;45.586;10.264;2023-05-15T10:42:25;3.75;;;3.45;;
79399;SDS011;68856;45.586;10.264;2023-05-15T10:44:53;4.13;;;3.60;;
79399;SDS011;68856;45.586;10.264;2023-05-15T10:47:24;4.78;;;3.55;;
79399;SDS011;68856;45.586;10.264;2023-05-15T10:49:51;3.63;;;3.28;;
79399;SDS011;68856;45.586;10.264;2023-05-15T10:52:18;4.18;;;3.72;;
79399;SDS011;68856;45.586;10.264;2023-05-15T10:54:44;5.50;;;3.80;;
79399;SDS011;68856;45.586;10.264;2023-05-15T10:57:11;4.63;;;3.53;;
79399;SDS011;68856;45.586;10.264;2023-05-15T10:59:39;5.15;;;3.70;;
79399;SDS011;68856;45.586;10.264;2023-05-15T11:04:44;4.53;;;3.28;;
79399;SDS011;68856;45.586;10.264;2023-05-15T11:07:12;2.97;;;2.72;;
79399;SDS011;68856;45.586;10.264;2023-05-15T11:09:40;3.80;;;3.40;;
79399;SDS011;68856;45.586;10.264;2023-05-15T11:12:07;3.80;;;3.50;;
79399;SDS011;68856;45.586;10.264;2023-05-15T11:15:16;2.70;;;2.50;;
79399;SDS011;68856;45.586;10.264;2023-05-15T11:17:23;3.60;;;3.28;;
79399;SDS011;68856;45.586;10.264;2023-05-15T11:22:17;3.35;;;2.95;;
79399;SDS011;68856;45.586;10.264;2023-05-15T11:24:57;4.25;;;3.50;;
79399;SDS011;68856;45.586;10.264;2023-05-15T11:32:40;3.05;;;2.75;;
79399;SDS011;68856;45.586;10.264;2023-05-15T11:37:53;4.05;;;2.83;;
79399;SDS011;68856;45.586;10.264;2023-05-15T11:40:25;3.08;;;2.60;;
79399;SDS011;68856;45.586;10.264;2023-05-15T11:43:03;2.67;;;2.47;;
79399;SDS011;68856;45.586;10.264;2023-05-15T11:45:34;2.83;;;2.60;;
79399;SDS011;68856;45.586;10.264;2023-05-15T11:48:03;2.88;;;2.53;;
79399;SDS011;68856;45.586;10.264;2023-05-15T11:50:31;2.70;;;2.50;;
79399;SDS011;68856;45.586;10.264;2023-05-15T11:53:02;4.97;;;3.55;;
79399;SDS011;68856;45.586;10.264;2023-05-15T11:55:30;3.85;;;3.03;;
79399;SDS011;68856;45.586;10.264;2023-05-15T11:57:58;3.38;;;3.08;;
79399;SDS011;68856;45.586;10.264;2023-05-15T12:00:25;2.58;;;2.35;;
79399;SDS011;68856;45.586;10.264;2023-05-15T12:02:51;2.30;;;2.10;;
79399;SDS011;68856;45.586;10.264;2023-05-15T12:05:18;2.15;;;1.95;;
79399;SDS011;68856;45.586;10.264;2023-05-15T12:07:45;4.00;;;2.05;;
79399;SDS011;68856;45.586;10.264;2023-05-15T12:10:11;1.92;;;1.80;;
79399;SDS011;68856;45.586;10.264;2023-05-15T12:12:39;2.92;;;1.83;;
79399;SDS011;68856;45.586;10.264;2023-05-15T12:15:13;4.47;;;2.47;;
79399;SDS011;68856;45.586;10.264;2023-05-15T12:17:41;2.47;;;2.28;;
79399;SDS011;68856;45.586;10.264;2023-05-15T12:20:15;4.25;;;3.03;;
79399;SDS011;68856;45.586;10.264;2023-05-15T12:22:42;3.80;;;1.85;;
79399;SDS011;68856;45.586;10.264;2023-05-15T12:25:09;9.23;;;2.20;;
79399;SDS011;68856;45.586;10.264;2023-05-15T12:27:37;2.78;;;2.47;;
79399;SDS011;68856;45.586;10.264;2023-05-15T12:30:04;2.58;;;2.03;;
79399;SDS011;68856;45.586;10.264;2023-05-15T12:32:34;3.42;;;2.30;;
79399;SDS011;68856;45.586;10.264;2023-05-15T12:35:02;3.00;;;1.70;;
79399;SDS011;68856;45.586;10.264;2023-05-15T12:37:33;1.92;;;1.20;;
79399;SDS011;68856;45.586;10.264;2023-05-15T12:40:03;2.33;;;2.13;;
79399;SDS011;68856;45.586;10.264;2023-05-15T12:42:42;4.30;;;2.53;;
79399;SDS011;68856;45.586;10.264;2023-05-15T12:45:15;3.20;;;2.45;;
79399;SDS011;68856;45.586;10.264;2023-05-15T12:47:43;2.53;;;2.33;;
79399;SDS011;68856;45.586;10.264;2023-05-15T12:52:40;2.45;;;2.25;;
79399;SDS011;68856;45.586;10.264;2023-05-15T12:55:35;3.95;;;2.42;;
79399;SDS011;68856;45.586;10.264;2023-05-15T12:58:07;3.13;;;1.90;;
79399;SDS011;68856;45.586;10.264;2023-05-15T13:00:39;1.27;;;1.17;;
79399;SDS011;68856;45.586;10.264;2023-05-15T13:03:08;1.65;;;1.30;;
79399;SDS011;68856;45.586;10.264;2023-05-15T13:05:35;1.30;;;1.20;;
79399;SDS011;68856;45.586;10.264;2023-05-15T13:08:03;1.42;;;1.20;;
79399;SDS011;68856;45.586;10.264;2023-05-15T13:10:32;0.85;;;0.85;;
79399;SDS011;68856;45.586;10.264;2023-05-15T13:12:59;2.00;;;0.98;;
79399;SDS011;68856;45.586;10.264;2023-05-15T13:15:35;2.38;;;1.38;;
79399;SDS011;68856;45.586;10.264;2023-05-15T13:18:03;2.28;;;1.20;;
79399;SDS011;68856;45.586;10.264;2023-05-15T13:20:41;1.40;;;1.30;;
79399;SDS011;68856;45.586;10.264;2023-05-15T13:23:09;2.13;;;1.38;;
79399;SDS011;68856;45.586;10.264;2023-05-15T13:25:39;1.90;;;1.40;;
79399;SDS011;68856;45.586;10.264;2023-05-15T13:28:05;4.90;;;1.50;;
79399;SDS011;68856;45.586;10.264;2023-05-15T13:30:34;1.17;;;1.08;;
79399;SDS011;68856;45.586;10.264;2023-05-15T13:33:03;5.63;;;1.02;;
79399;SDS011;68856;45.586;10.264;2023-05-15T13:35:29;2.05;;;0.80;;
79399;SDS011;68856;45.586;10.264;2023-05-15T13:37:56;1.17;;;1.08;;
79399;SDS011;68856;45.586;10.264;2023-05-15T13:40:22;3.38;;;0.77;;
79399;SDS011;68856;45.586;10.264;2023-05-15T13:42:48;3.55;;;1.00;;
79399;SDS011;68856;45.586;10.264;2023-05-15T13:45:15;2.45;;;0.93;;
79399;SDS011;68856;45.586;10.264;2023-05-15T13:47:41;1.50;;;1.00;;
79399;SDS011;68856;45.586;10.264;2023-05-15T13:50:09;0.98;;;0.88;;
79399;SDS011;68856;45.586;10.264;2023-05-15T13:52:39;2.35;;;1.02;;
79399;SDS011;68856;45.586;10.264;2023-05-15T13:55:06;1.85;;;1.00;;
79399;SDS011;68856;45.586;10.264;2023-05-15T13:57:37;2.30;;;0.98;;
79399;SDS011;68856;45.586;10.264;2023-05-15T14:00:07;6.35;;;1.10;;
79399;SDS011;68856;45.586;10.264;2023-05-15T14:02:37;1.83;;;1.40;;
79399;SDS011;68856;45.586;10.264;2023-05-15T14:05:07;3.05;;;1.20;;
79399;SDS011;68856;45.586;10.264;2023-05-15T14:07:38;1.33;;;1.00;;
79399;SDS011;68856;45.586;10.264;2023-05-15T14:10:05;1.38;;;0.80;;
79399;SDS011;68856;45.586;10.264;2023-05-15T14:12:32;2.28;;;1.35;;
79399;SDS011;68856;45.586;10.264;2023-05-15T14:14:58;5.32;;;1.50;;
79399;SDS011;68856;45.586;10.264;2023-05-15T14:17:25;1.77;;;1.35;;
79399;SDS011;68856;45.586;10.264;2023-05-15T14:19:52;2.20;;;1.40;;
79399;SDS011;68856;45.586;10.264;2023-05-15T14:22:18;4.55;;;1.40;;
79399;SDS011;68856;45.586;10.264;2023-05-15T14:24:44;1.20;;;1.20;;
79399;SDS011;68856;45.586;10.264;2023-05-15T14:27:10;1.98;;;1.15;;
79399;SDS011;68856;45.586;10.264;2023-05-15T14:29:37;2.33;;;1.15;;
79399;SDS011;68856;45.586;10.264;2023-05-15T14:32:04;2.35;;;1.38;;
79399;SDS011;68856;45.586;10.264;2023-05-15T14:34:30;1.45;;;1.35;;
79399;SDS011;68856;45.586;10.264;2023-05-15T14:36:57;1.52;;;1.40;;
79399;SDS011;68856;45.586;10.264;2023-05-15T14:39:24;1.17;;;1.00;;
79399;SDS011;68856;45.586;10.264;2023-05-15T14:41:50;1.17;;;1.05;;
79399;SDS011;68856;45.586;10.264;2023-05-15T14:44:16;2.33;;;1.20;;
79399;SDS011;68856;45.586;10.264;2023-05-15T14:46:42;1.27;;;1.13;;
79399;SDS011;68856;45.586;10.264;2023-05-15T14:49:08;1.35;;;0.93;;
79399;SDS011;68856;45.586;10.264;2023-05-15T14:51:34;1.40;;;0.80;;
79399;SDS011;68856;45.586;10.264;2023-05-15T14:54:00;1.05;;;0.65;;
79399;SDS011;68856;45.586;10.264;2023-05-15T14:56:28;0.70;;;0.70;;
79399;SDS011;68856;45.586;10.264;2023-05-15T14:58:54;1.20;;;1.00;;
79399;SDS011;68856;45.586;10.264;2023-05-15T15:01:20;0.70;;;0.63;;
79399;SDS011;68856;45.586;10.264;2023-05-15T15:03:46;1.33;;;0.90;;
79399;SDS011;68856;45.586;10.264;2023-05-15T15:06:12;1.13;;;0.68;;
79399;SDS011;68856;45.586;10.264;2023-05-15T15:08:38;0.57;;;0.57;;
79399;SDS011;68856;45.586;10.264;2023-05-15T15:11:04;1.27;;;0.70;;
79399;SDS011;68856;45.586;10.264;2023-05-15T15:13:31;1.63;;;0.50;;
79399;SDS011;68856;45.586;10.264;2023-05-15T15:15:57;0.65;;;0.60;;
79399;SDS011;68856;45.586;10.264;2023-05-15T15:18:23;2.95;;;1.05;;
79399;SDS011;68856;45.586;10.264;2023-05-15T15:20:50;1.83;;;1.52;;
79399;SDS011;68856;45.586;10.264;2023-05-15T15:23:16;1.90;;;0.70;;